Tupelo, Oklahoma
Current Conditions -  °F | °C
As of 7:15 PM on Thursday 18 Dec 2014 (Local Time) from KADH Reporting Station
Haze Haze  
Wind Chill: 38°   Ceiling: 400
Heat Index: 41°   Visibility: 2.5mi
Dew Point: 41°   Wind: 5mph
Humidity: 100%   Direction: 30°NNE
Pressure: 30.19"   Gusts: NA
Location:  34.6°N, 96.42°W
Report Text: KADH 190115Z AUTO 03004KT 2 1/2SM BR OVC004 05/05 A3019 RMK AO2
Loading
Personal Weather Stations






























Interactive Weather Map New forecast layout! Learn more

10-Day Weather Forecast

Advertisements
Track Severe Weather on mobile